sensor_id;sensor_type;location;lat;lon;timestamp;P1;durP1;ratioP1;P2;durP2;ratioP2
59072;SDS011;44859;51.934;15.554;2024-02-21T00:02:12;20.20;;;4.70;;
59072;SDS011;44859;51.934;15.554;2024-02-21T00:07:39;16.70;;;4.10;;
59072;SDS011;44859;51.934;15.554;2024-02-21T00:12:43;14.20;;;4.10;;
59072;SDS011;44859;51.934;15.554;2024-02-21T00:23:47;19.20;;;4.70;;
59072;SDS011;44859;51.934;15.554;2024-02-21T00:28:59;13.70;;;3.80;;
59072;SDS011;44859;51.934;15.554;2024-02-21T00:34:41;16.70;;;3.90;;
59072;SDS011;44859;51.934;15.554;2024-02-21T00:39:47;14.70;;;3.70;;
59072;SDS011;44859;51.934;15.554;2024-02-21T00:44:51;15.10;;;3.90;;
59072;SDS011;44859;51.934;15.554;2024-02-21T00:50:20;11.50;;;3.50;;
59072;SDS011;44859;51.934;15.554;2024-02-21T01:01:44;11.70;;;3.50;;
59072;SDS011;44859;51.934;15.554;2024-02-21T01:06:51;15.80;;;3.80;;
59072;SDS011;44859;51.934;15.554;2024-02-21T01:12:04;12.90;;;4.40;;
59072;SDS011;44859;51.934;15.554;2024-02-21T01:17:08;13.20;;;3.50;;
59072;SDS011;44859;51.934;15.554;2024-02-21T01:22:12;16.00;;;3.70;;
59072;SDS011;44859;51.934;15.554;2024-02-21T01:27:38;15.60;;;3.60;;
59072;SDS011;44859;51.934;15.554;2024-02-21T01:32:42;16.10;;;3.90;;
59072;SDS011;44859;51.934;15.554;2024-02-21T01:37:47;14.30;;;4.00;;
59072;SDS011;44859;51.934;15.554;2024-02-21T01:43:02;15.40;;;4.10;;
59072;SDS011;44859;51.934;15.554;2024-02-21T01:48:29;14.70;;;3.60;;
59072;SDS011;44859;51.934;15.554;2024-02-21T01:53:38;16.40;;;4.00;;
59072;SDS011;44859;51.934;15.554;2024-02-21T01:58:55;14.10;;;4.10;;
59072;SDS011;44859;51.934;15.554;2024-02-21T02:03:59;14.80;;;3.90;;
59072;SDS011;44859;51.934;15.554;2024-02-21T02:09:17;14.70;;;4.00;;
59072;SDS011;44859;51.934;15.554;2024-02-21T02:20:08;13.90;;;3.50;;
59072;SDS011;44859;51.934;15.554;2024-02-21T02:25:18;17.10;;;3.50;;
59072;SDS011;44859;51.934;15.554;2024-02-21T02:30:22;14.20;;;3.80;;
59072;SDS011;44859;51.934;15.554;2024-02-21T02:35:51;12.30;;;3.30;;
59072;SDS011;44859;51.934;15.554;2024-02-21T02:41:04;14.30;;;3.70;;
59072;SDS011;44859;51.934;15.554;2024-02-21T02:46:08;13.20;;;3.60;;
59072;SDS011;44859;51.934;15.554;2024-02-21T02:51:12;16.10;;;3.60;;
59072;SDS011;44859;51.934;15.554;2024-02-21T02:56:18;16.30;;;4.20;;
59072;SDS011;44859;51.934;15.554;2024-02-21T03:01:27;15.40;;;4.70;;
59072;SDS011;44859;51.934;15.554;2024-02-21T03:07:08;11.90;;;3.60;;
59072;SDS011;44859;51.934;15.554;2024-02-21T03:12:28;15.60;;;4.10;;
59072;SDS011;44859;51.934;15.554;2024-02-21T03:17:35;14.10;;;3.60;;
59072;SDS011;44859;51.934;15.554;2024-02-21T03:22:50;9.80;;;3.20;;
59072;SDS011;44859;51.934;15.554;2024-02-21T03:27:57;16.40;;;4.00;;
59072;SDS011;44859;51.934;15.554;2024-02-21T03:33:02;14.50;;;3.90;;
59072;SDS011;44859;51.934;15.554;2024-02-21T03:44:10;16.10;;;4.20;;
59072;SDS011;44859;51.934;15.554;2024-02-21T03:54:21;11.30;;;3.80;;
59072;SDS011;44859;51.934;15.554;2024-02-21T03:59:25;12.50;;;3.60;;
59072;SDS011;44859;51.934;15.554;2024-02-21T04:04:28;13.20;;;3.50;;
59072;SDS011;44859;51.934;15.554;2024-02-21T04:09:38;14.30;;;3.60;;
59072;SDS011;44859;51.934;15.554;2024-02-21T04:14:43;14.70;;;3.90;;
59072;SDS011;44859;51.934;15.554;2024-02-21T04:19:49;13.70;;;3.40;;
59072;SDS011;44859;51.934;15.554;2024-02-21T04:25:14;11.90;;;3.70;;
59072;SDS011;44859;51.934;15.554;2024-02-21T04:30:48;14.70;;;4.30;;
59072;SDS011;44859;51.934;15.554;2024-02-21T04:35:55;15.80;;;3.10;;
59072;SDS011;44859;51.934;15.554;2024-02-21T04:41:06;9.70;;;3.20;;
59072;SDS011;44859;51.934;15.554;2024-02-21T04:46:18;17.00;;;4.20;;
59072;SDS011;44859;51.934;15.554;2024-02-21T04:51:22;17.10;;;3.90;;
59072;SDS011;44859;51.934;15.554;2024-02-21T05:02:29;13.10;;;3.40;;
59072;SDS011;44859;51.934;15.554;2024-02-21T05:07:53;13.00;;;3.90;;
59072;SDS011;44859;51.934;15.554;2024-02-21T05:13:09;13.00;;;3.80;;
59072;SDS011;44859;51.934;15.554;2024-02-21T05:18:15;15.30;;;4.10;;
59072;SDS011;44859;51.934;15.554;2024-02-21T05:23:30;13.90;;;3.50;;
59072;SDS011;44859;51.934;15.554;2024-02-21T05:28:33;13.60;;;3.40;;
59072;SDS011;44859;51.934;15.554;2024-02-21T05:33:40;13.30;;;3.80;;
59072;SDS011;44859;51.934;15.554;2024-02-21T05:39:04;13.80;;;4.30;;
59072;SDS011;44859;51.934;15.554;2024-02-21T05:44:28;14.80;;;3.50;;
59072;SDS011;44859;51.934;15.554;2024-02-21T05:49:59;12.80;;;4.10;;
59072;SDS011;44859;51.934;15.554;2024-02-21T05:55:03;13.70;;;3.50;;
59072;SDS011;44859;51.934;15.554;2024-02-21T06:00:10;13.00;;;3.70;;
59072;SDS011;44859;51.934;15.554;2024-02-21T06:05:14;13.80;;;3.60;;
59072;SDS011;44859;51.934;15.554;2024-02-21T06:10:17;9.90;;;3.50;;
59072;SDS011;44859;51.934;15.554;2024-02-21T06:15:23;14.40;;;4.50;;
59072;SDS011;44859;51.934;15.554;2024-02-21T06:20:27;13.60;;;4.00;;
59072;SDS011;44859;51.934;15.554;2024-02-21T06:25:34;19.20;;;4.90;;
59072;SDS011;44859;51.934;15.554;2024-02-21T06:30:40;15.10;;;4.90;;
59072;SDS011;44859;51.934;15.554;2024-02-21T06:35:44;14.20;;;4.00;;
59072;SDS011;44859;51.934;15.554;2024-02-21T06:41:14;12.70;;;3.80;;
59072;SDS011;44859;51.934;15.554;2024-02-21T06:46:48;68.50;;;31.60;;
59072;SDS011;44859;51.934;15.554;2024-02-21T06:51:57;37.80;;;16.00;;
59072;SDS011;44859;51.934;15.554;2024-02-21T06:57:24;21.20;;;6.30;;
59072;SDS011;44859;51.934;15.554;2024-02-21T07:03:38;24.80;;;10.70;;
59072;SDS011;44859;51.934;15.554;2024-02-21T07:13:57;18.00;;;6.20;;
59072;SDS011;44859;51.934;15.554;2024-02-21T07:19:03;15.00;;;4.70;;
59072;SDS011;44859;51.934;15.554;2024-02-21T07:24:15;16.30;;;4.20;;
59072;SDS011;44859;51.934;15.554;2024-02-21T07:29:40;11.50;;;3.80;;
59072;SDS011;44859;51.934;15.554;2024-02-21T07:35:12;18.50;;;5.50;;
59072;SDS011;44859;51.934;15.554;2024-02-21T07:40:48;15.20;;;4.30;;
59072;SDS011;44859;51.934;15.554;2024-02-21T07:46:22;18.60;;;4.90;;
59072;SDS011;44859;51.934;15.554;2024-02-21T07:51:37;16.90;;;5.30;;
59072;SDS011;44859;51.934;15.554;2024-02-21T07:56:55;16.80;;;4.70;;
59072;SDS011;44859;51.934;15.554;2024-02-21T08:07:52;13.80;;;5.00;;
59072;SDS011;44859;51.934;15.554;2024-02-21T08:13:03;14.60;;;4.00;;
59072;SDS011;44859;51.934;15.554;2024-02-21T08:53:22;12.50;;;4.60;;
59072;SDS011;44859;51.934;15.554;2024-02-21T08:58:28;14.50;;;4.20;;
59072;SDS011;44859;51.934;15.554;2024-02-21T09:04:00;15.70;;;5.00;;
59072;SDS011;44859;51.934;15.554;2024-02-21T09:09:06;19.70;;;5.70;;
59072;SDS011;44859;51.934;15.554;2024-02-21T09:14:31;18.50;;;6.10;;
59072;SDS011;44859;51.934;15.554;2024-02-21T09:19:42;20.20;;;6.40;;
59072;SDS011;44859;51.934;15.554;2024-02-21T09:25:16;16.50;;;6.00;;
59072;SDS011;44859;51.934;15.554;2024-02-21T09:36:46;16.90;;;5.00;;
59072;SDS011;44859;51.934;15.554;2024-02-21T09:42:02;16.90;;;5.80;;
59072;SDS011;44859;51.934;15.554;2024-02-21T09:53:49;16.00;;;5.30;;
59072;SDS011;44859;51.934;15.554;2024-02-21T09:59:57;15.30;;;5.00;;
59072;SDS011;44859;51.934;15.554;2024-02-21T10:11:39;16.50;;;5.60;;
59072;SDS011;44859;51.934;15.554;2024-02-21T10:23:00;18.40;;;6.30;;
59072;SDS011;44859;51.934;15.554;2024-02-21T10:28:18;17.70;;;6.20;;
59072;SDS011;44859;51.934;15.554;2024-02-21T10:34:06;18.10;;;5.40;;
59072;SDS011;44859;51.934;15.554;2024-02-21T10:39:33;16.30;;;6.00;;
59072;SDS011;44859;51.934;15.554;2024-02-21T10:44:41;15.00;;;5.50;;
59072;SDS011;44859;51.934;15.554;2024-02-21T10:50:06;16.10;;;4.80;;
59072;SDS011;44859;51.934;15.554;2024-02-21T11:01:50;18.20;;;5.90;;
59072;SDS011;44859;51.934;15.554;2024-02-21T11:07:22;14.90;;;5.20;;
59072;SDS011;44859;51.934;15.554;2024-02-21T11:12:37;16.70;;;5.40;;
59072;SDS011;44859;51.934;15.554;2024-02-21T11:18:01;17.10;;;6.10;;
59072;SDS011;44859;51.934;15.554;2024-02-21T11:28:57;15.20;;;4.90;;
59072;SDS011;44859;51.934;15.554;2024-02-21T11:34:34;14.10;;;5.00;;
59072;SDS011;44859;51.934;15.554;2024-02-21T11:40:13;15.60;;;4.70;;
59072;SDS011;44859;51.934;15.554;2024-02-21T11:45:20;17.00;;;5.70;;
59072;SDS011;44859;51.934;15.554;2024-02-21T12:02:18;18.60;;;6.90;;
59072;SDS011;44859;51.934;15.554;2024-02-21T12:07:31;38.10;;;19.60;;
59072;SDS011;44859;51.934;15.554;2024-02-21T12:12:39;14.90;;;5.80;;
59072;SDS011;44859;51.934;15.554;2024-02-21T12:18:13;15.50;;;5.70;;
59072;SDS011;44859;51.934;15.554;2024-02-21T12:23:37;17.20;;;5.80;;
59072;SDS011;44859;51.934;15.554;2024-02-21T12:28:58;18.70;;;6.80;;
59072;SDS011;44859;51.934;15.554;2024-02-21T12:34:05;15.30;;;6.00;;
59072;SDS011;44859;51.934;15.554;2024-02-21T12:39:59;15.40;;;5.10;;
59072;SDS011;44859;51.934;15.554;2024-02-21T12:45:27;15.30;;;6.20;;
59072;SDS011;44859;51.934;15.554;2024-02-21T12:51:10;18.40;;;7.10;;
59072;SDS011;44859;51.934;15.554;2024-02-21T12:56:18;15.60;;;6.00;;
59072;SDS011;44859;51.934;15.554;2024-02-21T13:06:51;22.40;;;9.50;;
59072;SDS011;44859;51.934;15.554;2024-02-21T13:12:19;15.30;;;6.00;;
59072;SDS011;44859;51.934;15.554;2024-02-21T13:17:53;14.30;;;6.00;;
59072;SDS011;44859;51.934;15.554;2024-02-21T13:23:05;13.30;;;5.00;;
59072;SDS011;44859;51.934;15.554;2024-02-21T13:28:18;13.10;;;5.20;;
59072;SDS011;44859;51.934;15.554;2024-02-21T13:44:46;15.10;;;5.10;;
59072;SDS011;44859;51.934;15.554;2024-02-21T13:51:11;14.30;;;6.10;;
59072;SDS011;44859;51.934;15.554;2024-02-21T13:56:20;14.40;;;5.50;;
59072;SDS011;44859;51.934;15.554;2024-02-21T14:01:24;15.70;;;6.20;;
59072;SDS011;44859;51.934;15.554;2024-02-21T14:06:36;14.70;;;5.80;;
59072;SDS011;44859;51.934;15.554;2024-02-21T14:12:20;16.00;;;5.50;;
59072;SDS011;44859;51.934;15.554;2024-02-21T14:23:29;15.20;;;5.50;;
59072;SDS011;44859;51.934;15.554;2024-02-21T14:28:33;12.90;;;5.10;;
59072;SDS011;44859;51.934;15.554;2024-02-21T14:40:03;18.40;;;5.50;;
59072;SDS011;44859;51.934;15.554;2024-02-21T14:45:19;13.20;;;5.10;;
59072;SDS011;44859;51.934;15.554;2024-02-21T14:51:43;15.90;;;5.90;;
59072;SDS011;44859;51.934;15.554;2024-02-21T14:57:20;24.60;;;7.80;;
59072;SDS011;44859;51.934;15.554;2024-02-21T15:02:56;18.20;;;6.70;;
59072;SDS011;44859;51.934;15.554;2024-02-21T15:08:04;13.40;;;5.70;;
59072;SDS011;44859;51.934;15.554;2024-02-21T15:13:36;16.60;;;6.70;;
59072;SDS011;44859;51.934;15.554;2024-02-21T15:18:41;18.00;;;6.30;;
59072;SDS011;44859;51.934;15.554;2024-02-21T15:24:07;12.20;;;4.80;;
59072;SDS011;44859;51.934;15.554;2024-02-21T15:29:20;14.40;;;5.20;;
59072;SDS011;44859;51.934;15.554;2024-02-21T15:34:31;13.50;;;5.30;;
59072;SDS011;44859;51.934;15.554;2024-02-21T15:40:17;11.50;;;4.50;;
59072;SDS011;44859;51.934;15.554;2024-02-21T15:46:22;15.20;;;5.30;;
59072;SDS011;44859;51.934;15.554;2024-02-21T15:51:48;13.10;;;4.90;;
59072;SDS011;44859;51.934;15.554;2024-02-21T16:02:21;16.90;;;5.50;;
59072;SDS011;44859;51.934;15.554;2024-02-21T16:07:40;12.40;;;4.90;;
59072;SDS011;44859;51.934;15.554;2024-02-21T16:24:52;12.90;;;4.60;;
59072;SDS011;44859;51.934;15.554;2024-02-21T16:30:44;14.00;;;5.80;;
59072;SDS011;44859;51.934;15.554;2024-02-21T16:42:26;19.60;;;7.20;;
59072;SDS011;44859;51.934;15.554;2024-02-21T16:47:35;17.30;;;6.60;;
59072;SDS011;44859;51.934;15.554;2024-02-21T16:58:45;17.60;;;8.00;;
59072;SDS011;44859;51.934;15.554;2024-02-21T17:03:52;20.20;;;8.10;;
59072;SDS011;44859;51.934;15.554;2024-02-21T17:09:03;24.60;;;11.90;;
59072;SDS011;44859;51.934;15.554;2024-02-21T17:14:28;27.10;;;14.10;;
59072;SDS011;44859;51.934;15.554;2024-02-21T17:19:37;55.40;;;30.00;;
59072;SDS011;44859;51.934;15.554;2024-02-21T17:25:21;74.30;;;39.10;;
59072;SDS011;44859;51.934;15.554;2024-02-21T17:30:49;28.50;;;14.30;;
59072;SDS011;44859;51.934;15.554;2024-02-21T17:36:13;17.90;;;8.30;;
59072;SDS011;44859;51.934;15.554;2024-02-21T17:41:19;17.40;;;6.40;;
59072;SDS011;44859;51.934;15.554;2024-02-21T17:46:44;15.90;;;6.40;;
59072;SDS011;44859;51.934;15.554;2024-02-21T17:52:43;16.00;;;6.70;;
59072;SDS011;44859;51.934;15.554;2024-02-21T17:59:00;18.00;;;7.30;;
59072;SDS011;44859;51.934;15.554;2024-02-21T18:04:40;16.20;;;6.80;;
59072;SDS011;44859;51.934;15.554;2024-02-21T18:15:44;17.50;;;7.50;;
59072;SDS011;44859;51.934;15.554;2024-02-21T18:20:49;15.60;;;6.40;;
59072;SDS011;44859;51.934;15.554;2024-02-21T18:26:16;17.10;;;6.70;;
59072;SDS011;44859;51.934;15.554;2024-02-21T18:31:34;18.10;;;7.50;;
59072;SDS011;44859;51.934;15.554;2024-02-21T18:42:54;20.60;;;9.50;;
59072;SDS011;44859;51.934;15.554;2024-02-21T18:49:06;20.30;;;9.60;;
59072;SDS011;44859;51.934;15.554;2024-02-21T18:54:20;18.60;;;8.10;;
59072;SDS011;44859;51.934;15.554;2024-02-21T18:59:48;19.50;;;8.80;;
59072;SDS011;44859;51.934;15.554;2024-02-21T19:05:36;21.70;;;10.00;;
59072;SDS011;44859;51.934;15.554;2024-02-21T19:11:06;21.60;;;11.10;;
59072;SDS011;44859;51.934;15.554;2024-02-21T19:17:05;44.00;;;21.70;;
59072;SDS011;44859;51.934;15.554;2024-02-21T19:22:32;28.30;;;12.60;;
59072;SDS011;44859;51.934;15.554;2024-02-21T19:28:11;23.30;;;10.20;;
59072;SDS011;44859;51.934;15.554;2024-02-21T19:33:18;23.90;;;11.50;;
59072;SDS011;44859;51.934;15.554;2024-02-21T19:38:24;27.20;;;12.70;;
59072;SDS011;44859;51.934;15.554;2024-02-21T19:44:23;30.00;;;12.90;;
59072;SDS011;44859;51.934;15.554;2024-02-21T19:49:34;28.00;;;13.30;;
59072;SDS011;44859;51.934;15.554;2024-02-21T19:54:54;34.10;;;15.50;;
59072;SDS011;44859;51.934;15.554;2024-02-21T19:59:58;44.40;;;18.80;;
59072;SDS011;44859;51.934;15.554;2024-02-21T20:05:07;38.50;;;16.60;;
59072;SDS011;44859;51.934;15.554;2024-02-21T20:10:15;39.20;;;18.90;;
59072;SDS011;44859;51.934;15.554;2024-02-21T20:15:25;35.80;;;17.10;;
59072;SDS011;44859;51.934;15.554;2024-02-21T20:20:40;35.70;;;18.80;;
59072;SDS011;44859;51.934;15.554;2024-02-21T20:25:48;40.50;;;20.00;;
59072;SDS011;44859;51.934;15.554;2024-02-21T20:30:54;39.40;;;20.40;;
59072;SDS011;44859;51.934;15.554;2024-02-21T20:36:17;40.10;;;19.30;;
59072;SDS011;44859;51.934;15.554;2024-02-21T20:41:21;66.10;;;35.60;;
59072;SDS011;44859;51.934;15.554;2024-02-21T20:52:26;30.60;;;14.30;;
59072;SDS011;44859;51.934;15.554;2024-02-21T20:57:40;28.30;;;12.50;;
59072;SDS011;44859;51.934;15.554;2024-02-21T21:02:55;24.80;;;11.40;;
59072;SDS011;44859;51.934;15.554;2024-02-21T21:13:58;25.60;;;11.80;;
59072;SDS011;44859;51.934;15.554;2024-02-21T21:19:31;23.50;;;10.30;;
59072;SDS011;44859;51.934;15.554;2024-02-21T21:24:38;39.20;;;20.50;;
59072;SDS011;44859;51.934;15.554;2024-02-21T21:30:07;27.10;;;12.20;;
59072;SDS011;44859;51.934;15.554;2024-02-21T21:35:33;22.30;;;10.40;;
59072;SDS011;44859;51.934;15.554;2024-02-21T21:40:41;23.70;;;10.90;;
59072;SDS011;44859;51.934;15.554;2024-02-21T21:45:56;21.40;;;9.70;;
59072;SDS011;44859;51.934;15.554;2024-02-21T21:51:02;23.10;;;11.00;;
59072;SDS011;44859;51.934;15.554;2024-02-21T21:56:09;20.00;;;9.40;;
59072;SDS011;44859;51.934;15.554;2024-02-21T22:01:13;53.80;;;27.50;;
59072;SDS011;44859;51.934;15.554;2024-02-21T22:06:17;23.20;;;10.70;;
59072;SDS011;44859;51.934;15.554;2024-02-21T22:11:24;24.00;;;10.20;;
59072;SDS011;44859;51.934;15.554;2024-02-21T22:16:30;23.50;;;9.80;;
59072;SDS011;44859;51.934;15.554;2024-02-21T22:22:04;23.20;;;9.90;;
59072;SDS011;44859;51.934;15.554;2024-02-21T22:27:08;19.80;;;9.20;;
59072;SDS011;44859;51.934;15.554;2024-02-21T22:38:20;20.10;;;9.70;;
59072;SDS011;44859;51.934;15.554;2024-02-21T22:49:20;19.30;;;9.10;;
59072;SDS011;44859;51.934;15.554;2024-02-21T22:59:46;18.90;;;7.50;;
59072;SDS011;44859;51.934;15.554;2024-02-21T23:10:43;18.90;;;7.60;;
59072;SDS011;44859;51.934;15.554;2024-02-21T23:15:52;19.10;;;7.90;;
59072;SDS011;44859;51.934;15.554;2024-02-21T23:21:10;18.90;;;7.40;;
59072;SDS011;44859;51.934;15.554;2024-02-21T23:32:11;18.10;;;7.30;;
59072;SDS011;44859;51.934;15.554;2024-02-21T23:37:15;17.70;;;6.60;;
59072;SDS011;44859;51.934;15.554;2024-02-21T23:42:40;15.60;;;6.20;;
59072;SDS011;44859;51.934;15.554;2024-02-21T23:47:47;16.00;;;6.60;;
59072;SDS011;44859;51.934;15.554;2024-02-21T23:52:53;16.80;;;6.60;;
59072;SDS011;44859;51.934;15.554;2024-02-21T23:58:00;15.90;;;6.80;;
